Time;durP1;ratioP1;P1;durP2;ratioP2;P2;SDS_P1;SDS_P2;PMS_P1;PMS_P2;Temp;Humidity;BMP_temperature;BMP_pressure;BME280_temperature;BME280_humidity;BME280_pressure;Samples;Min_cycle;Max_cycle;Signal;HPM_P1;HPM_P2
2020/12/06 00:00:59;;;;;;;13.60;8.13;;;;;;;;;;5057230;28;20057;-74
2020/12/06 00:03:25;;;;;;;12.23;7.68;;;;;;;;;;5058201;28;20435;-75
2020/12/06 00:05:51;;;;;;;10.43;6.78;;;;;;;;;;5056746;28;20060;-76
2020/12/06 00:08:20;;;;;;;9.98;7.05;;;;;;;;;;5055095;28;20829;-75
2020/12/06 00:10:46;;;;;;;12.07;6.70;;;;;;;;;;5059193;28;20072;-75
2020/12/06 00:13:12;;;;;;;11.88;7.22;;;;;;;;;;5052660;28;20045;-75
2020/12/06 00:15:38;;;;;;;9.82;6.80;;;;;;;;;;5060259;28;20060;-75
2020/12/06 00:18:04;;;;;;;11.23;6.20;;;;;;;;;;5058585;28;20036;-76
2020/12/06 00:20:31;;;;;;;10.73;6.50;;;;;;;;;;5055102;28;20402;-75
2020/12/06 00:22:57;;;;;;;10.55;7.22;;;;;;;;;;5056955;28;20539;-75
2020/12/06 00:25:23;;;;;;;11.85;6.85;;;;;;;;;;5056878;28;20422;-75
2020/12/06 00:27:49;;;;;;;9.25;6.55;;;;;;;;;;5058328;28;20053;-76
2020/12/06 00:30:15;;;;;;;10.98;6.88;;;;;;;;;;5056469;28;20430;-75
2020/12/06 00:32:43;;;;;;;10.27;6.35;;;;;;;;;;5060151;28;20131;-75
2020/12/06 00:35:10;;;;;;;8.25;5.70;;;;;;;;;;5056743;28;20108;-75
2020/12/06 00:37:39;;;;;;;7.82;5.80;;;;;;;;;;5055886;28;20044;-75
2020/12/06 00:40:08;;;;;;;7.90;5.35;;;;;;;;;;5055593;28;20048;-75
2020/12/06 00:42:35;;;;;;;9.70;6.10;;;;;;;;;;5056783;28;20056;-75
2020/12/06 00:45:03;;;;;;;11.82;6.80;;;;;;;;;;5058142;28;20060;-75
2020/12/06 00:47:29;;;;;;;10.40;6.32;;;;;;;;;;5056053;28;20041;-75
2020/12/06 00:49:56;;;;;;;7.22;5.35;;;;;;;;;;5060481;28;20048;-74
2020/12/06 00:52:22;;;;;;;7.25;5.15;;;;;;;;;;5059269;28;20045;-75
2020/12/06 00:54:48;;;;;;;9.25;5.95;;;;;;;;;;5057910;28;20044;-75
2020/12/06 00:57:14;;;;;;;9.02;6.20;;;;;;;;;;5061584;28;20048;-75
2020/12/06 00:59:40;;;;;;;10.95;6.45;;;;;;;;;;5058113;28;20102;-75
2020/12/06 01:02:06;;;;;;;9.35;5.70;;;;;;;;;;5054103;28;20844;-75
2020/12/06 01:04:33;;;;;;;8.88;5.72;;;;;;;;;;5059974;28;20052;-75
2020/12/06 01:06:59;;;;;;;8.68;5.50;;;;;;;;;;5062500;28;20055;-75
2020/12/06 01:09:26;;;;;;;7.85;5.20;;;;;;;;;;5060334;28;20048;-75
2020/12/06 01:11:52;;;;;;;8.18;5.45;;;;;;;;;;5053051;28;20055;-75
2020/12/06 01:14:18;;;;;;;9.82;5.88;;;;;;;;;;5057840;28;20056;-75
2020/12/06 01:16:48;;;;;;;8.15;5.93;;;;;;;;;;5058359;28;20049;-75
2020/12/06 01:19:14;;;;;;;;;;;;;;;;;;5058819;28;20052;-75
2020/12/06 01:21:46;;;;;;;8.15;5.38;;;;;;;;;;5061128;28;19924;-75
2020/12/06 01:24:12;;;;;;;17.25;6.95;;;;;;;;;;5058825;28;20052;-78
2020/12/06 01:26:39;;;;;;;9.48;6.15;;;;;;;;;;5060986;28;20401;-77
2020/12/06 01:29:05;;;;;;;7.95;5.50;;;;;;;;;;5062191;28;20053;-77
2020/12/06 01:31:31;;;;;;;10.63;5.32;;;;;;;;;;5059035;28;20379;-76
2020/12/06 01:33:57;;;;;;;8.32;5.10;;;;;;;;;;5063326;28;20052;-77
2020/12/06 01:36:23;;;;;;;7.85;5.10;;;;;;;;;;5055981;28;20055;-77
2020/12/06 01:38:49;;;;;;;13.70;5.55;;;;;;;;;;5057928;28;20041;-75
2020/12/06 01:41:18;;;;;;;7.63;4.93;;;;;;;;;;5055670;28;20041;-75
2020/12/06 01:43:52;;;;;;;6.70;4.88;;;;;;;;;;5054089;28;20090;-75
2020/12/06 01:46:18;;;;;;;8.20;5.75;;;;;;;;;;5055707;28;20056;-75
2020/12/06 01:48:44;;;;;;;6.80;5.05;;;;;;;;;;5056236;28;20045;-75
2020/12/06 01:51:10;;;;;;;7.22;5.15;;;;;;;;;;5052783;28;20143;-78
2020/12/06 01:53:37;;;;;;;8.57;5.07;;;;;;;;;;5056267;28;20500;-77
2020/12/06 01:56:03;;;;;;;7.57;4.95;;;;;;;;;;5058464;28;20048;-78
2020/12/06 01:58:29;;;;;;;8.27;4.75;;;;;;;;;;5052654;28;20478;-77
2020/12/06 02:00:56;;;;;;;9.00;4.78;;;;;;;;;;5058737;28;20495;-77
2020/12/06 02:03:22;;;;;;;10.45;4.60;;;;;;;;;;5056708;28;20060;-78
2020/12/06 02:05:48;;;;;;;7.65;4.38;;;;;;;;;;5054678;28;20762;-79
2020/12/06 02:08:14;;;;;;;8.40;4.40;;;;;;;;;;5060838;28;20045;-77
2020/12/06 02:10:40;;;;;;;8.77;4.55;;;;;;;;;;5057851;28;20048;-78
2020/12/06 02:13:07;;;;;;;7.13;4.97;;;;;;;;;;5062047;28;20413;-77
2020/12/06 02:15:35;;;;;;;5.43;4.22;;;;;;;;;;5061085;28;20040;-75
2020/12/06 02:18:01;;;;;;;7.70;4.22;;;;;;;;;;5059794;28;20052;-76
2020/12/06 02:20:27;;;;;;;7.07;5.15;;;;;;;;;;5053750;28;20060;-75
2020/12/06 02:22:53;;;;;;;8.63;5.38;;;;;;;;;;5053578;28;20045;-75
2020/12/06 02:25:19;;;;;;;7.35;4.68;;;;;;;;;;5053965;28;20462;-76
2020/12/06 02:27:45;;;;;;;7.88;4.45;;;;;;;;;;5057652;28;20048;-75
2020/12/06 02:30:12;;;;;;;8.02;4.75;;;;;;;;;;5057618;28;20489;-75
2020/12/06 02:32:38;;;;;;;7.20;4.82;;;;;;;;;;5054593;28;20054;-75
2020/12/06 02:35:04;;;;;;;5.97;4.22;;;;;;;;;;5056043;28;20061;-76
2020/12/06 02:37:31;;;;;;;6.55;4.25;;;;;;;;;;5054485;28;20043;-76
2020/12/06 02:39:57;;;;;;;8.05;5.20;;;;;;;;;;5057497;28;20049;-75
2020/12/06 02:42:23;;;;;;;6.85;4.28;;;;;;;;;;5056816;28;20084;-76
2020/12/06 02:44:49;;;;;;;6.95;4.07;;;;;;;;;;5061507;28;20040;-75
2020/12/06 02:47:15;;;;;;;7.25;4.88;;;;;;;;;;5057174;28;20045;-75
2020/12/06 02:49:41;;;;;;;6.25;4.20;;;;;;;;;;5058894;28;20380;-75
2020/12/06 02:52:08;;;;;;;6.70;4.32;;;;;;;;;;5055963;28;20399;-75
2020/12/06 02:54:35;;;;;;;8.85;5.05;;;;;;;;;;5057706;28;20037;-78
2020/12/06 02:57:01;;;;;;;7.13;4.38;;;;;;;;;;5057401;28;20049;-78
2020/12/06 02:59:27;;;;;;;10.20;4.07;;;;;;;;;;5059052;28;20068;-78
2020/12/06 03:01:54;;;;;;;9.65;5.13;;;;;;;;;;5055428;28;20064;-78
2020/12/06 03:04:20;;;;;;;7.00;3.85;;;;;;;;;;5053835;28;20037;-78
2020/12/06 03:06:47;;;;;;;4.47;3.70;;;;;;;;;;5057180;28;20545;-78
2020/12/06 03:09:13;;;;;;;5.40;3.50;;;;;;;;;;5054691;28;20418;-77
2020/12/06 03:11:39;;;;;;;8.10;4.20;;;;;;;;;;5059120;28;20417;-79
2020/12/06 03:14:06;;;;;;;9.35;3.97;;;;;;;;;;5059879;28;20053;-79
2020/12/06 03:16:32;;;;;;;8.23;4.10;;;;;;;;;;5058937;28;20045;-79
2020/12/06 03:18:58;;;;;;;5.47;3.70;;;;;;;;;;5053734;28;22039;-78
2020/12/06 03:21:24;;;;;;;6.65;4.47;;;;;;;;;;5059919;28;20045;-80
2020/12/06 03:23:50;;;;;;;6.90;4.40;;;;;;;;;;5062206;28;20044;-79
2020/12/06 03:26:16;;;;;;;6.53;4.18;;;;;;;;;;5060280;28;20044;-77
2020/12/06 03:28:43;;;;;;;9.30;3.90;;;;;;;;;;5055491;28;20045;-78
2020/12/06 03:31:09;;;;;;;5.40;3.65;;;;;;;;;;5056271;28;20053;-77
2020/12/06 03:33:35;;;;;;;5.53;4.15;;;;;;;;;;5054188;28;20422;-78
2020/12/06 03:36:01;;;;;;;5.97;3.97;;;;;;;;;;5054474;28;20044;-76
2020/12/06 03:38:27;;;;;;;6.78;3.72;;;;;;;;;;5060022;28;20047;-78
2020/12/06 03:40:53;;;;;;;6.90;4.03;;;;;;;;;;5054953;28;20045;-78
2020/12/06 03:43:19;;;;;;;4.95;3.50;;;;;;;;;;5055660;28;20380;-78
2020/12/06 03:45:45;;;;;;;4.57;3.60;;;;;;;;;;5055497;28;20052;-77
2020/12/06 03:48:11;;;;;;;4.65;3.42;;;;;;;;;;5057896;28;20044;-76
2020/12/06 03:50:38;;;;;;;5.68;3.97;;;;;;;;;;5053873;28;20068;-77
2020/12/06 03:53:04;;;;;;;5.47;3.53;;;;;;;;;;5060507;28;20045;-78
2020/12/06 03:55:30;;;;;;;6.15;3.22;;;;;;;;;;5061710;28;20405;-77
2020/12/06 03:57:56;;;;;;;5.63;4.05;;;;;;;;;;5059888;28;20126;-77
2020/12/06 04:00:23;;;;;;;6.75;3.88;;;;;;;;;;5060998;28;20067;-77
2020/12/06 04:02:49;;;;;;;5.35;2.67;;;;;;;;;;5051110;28;20063;-76
2020/12/06 04:05:21;;;;;;;5.78;3.65;;;;;;;;;;5053789;28;20045;-75
2020/12/06 04:07:49;;;;;;;6.60;3.42;;;;;;;;;;5059491;28;20486;-75
2020/12/06 04:10:15;;;;;;;9.13;4.00;;;;;;;;;;5058227;28;20063;-77
2020/12/06 04:12:41;;;;;;;5.93;3.47;;;;;;;;;;5062645;28;20478;-77
2020/12/06 04:15:08;;;;;;;5.68;3.65;;;;;;;;;;5056837;28;20057;-77
2020/12/06 04:17:34;;;;;;;7.75;3.25;;;;;;;;;;5057396;28;20047;-76
2020/12/06 04:20:00;;;;;;;4.68;3.38;;;;;;;;;;5060564;28;20056;-76
2020/12/06 04:22:27;;;;;;;6.78;3.53;;;;;;;;;;5060228;28;20048;-78
2020/12/06 04:24:53;;;;;;;5.70;3.38;;;;;;;;;;5063581;28;20036;-76
2020/12/06 04:27:19;;;;;;;4.80;2.97;;;;;;;;;;5059038;28;20048;-77
2020/12/06 04:29:45;;;;;;;5.95;4.03;;;;;;;;;;5059927;28;20063;-77
2020/12/06 04:32:11;;;;;;;4.25;3.00;;;;;;;;;;5059304;28;20056;-75
2020/12/06 04:34:37;;;;;;;3.80;2.85;;;;;;;;;;5065157;28;20136;-76
2020/12/06 04:37:04;;;;;;;6.32;3.50;;;;;;;;;;5063349;28;20055;-77
2020/12/06 04:39:30;;;;;;;5.38;3.88;;;;;;;;;;5060827;28;20063;-76
2020/12/06 04:41:58;;;;;;;4.85;3.35;;;;;;;;;;5059397;28;20815;-77
2020/12/06 04:44:25;;;;;;;4.78;3.42;;;;;;;;;;5058591;28;20140;-78
2020/12/06 04:46:54;;;;;;;4.20;3.17;;;;;;;;;;5062747;28;20048;-77
2020/12/06 04:49:44;;;;;;;4.78;3.05;;;;;;;;;;5061065;28;20056;-77
2020/12/06 04:52:17;;;;;;;4.43;3.25;;;;;;;;;;5064673;28;20090;-76
2020/12/06 04:54:48;;;;;;;5.45;3.15;;;;;;;;;;5060489;28;20392;-77
2020/12/06 04:57:17;;;;;;;5.20;3.33;;;;;;;;;;5059109;28;20130;-77
2020/12/06 04:59:45;;;;;;;4.95;3.45;;;;;;;;;;5055112;28;20049;-77
2020/12/06 05:02:12;;;;;;;4.07;3.20;;;;;;;;;;5056919;28;20040;-76
2020/12/06 05:04:40;;;;;;;5.72;3.58;;;;;;;;;;5063481;28;20052;-75
2020/12/06 05:07:07;;;;;;;4.05;2.95;;;;;;;;;;5059013;28;20542;-76
2020/12/06 05:09:37;;;;;;;6.40;4.05;;;;;;;;;;5061432;28;20041;-76
2020/12/06 05:12:04;;;;;;;5.07;4.00;;;;;;;;;;5059141;28;20052;-76
2020/12/06 05:14:30;;;;;;;3.90;2.83;;;;;;;;;;5059438;28;20075;-76
2020/12/06 05:16:57;;;;;;;4.97;2.78;;;;;;;;;;5058062;28;20045;-76
2020/12/06 05:19:26;;;;;;;6.97;3.30;;;;;;;;;;5057442;28;20505;-76
2020/12/06 05:21:53;;;;;;;3.78;2.90;;;;;;;;;;5059949;28;20048;-77
2020/12/06 05:24:19;;;;;;;6.22;3.67;;;;;;;;;;5061000;28;20052;-76
2020/12/06 05:26:46;;;;;;;5.20;3.20;;;;;;;;;;5054265;28;20045;-77
2020/12/06 05:29:13;;;;;;;6.20;2.85;;;;;;;;;;5062780;28;20045;-77
2020/12/06 05:31:39;;;;;;;4.15;2.92;;;;;;;;;;5057990;28;20061;-77
2020/12/06 05:34:05;;;;;;;5.80;3.20;;;;;;;;;;5058651;28;20051;-76
2020/12/06 05:36:31;;;;;;;4.53;2.63;;;;;;;;;;5058950;28;20056;-75
2020/12/06 05:38:58;;;;;;;4.93;3.10;;;;;;;;;;5054934;28;20096;-77
2020/12/06 05:41:33;;;;;;;4.97;2.95;;;;;;;;;;5056713;28;20053;-76
2020/12/06 05:44:01;;;;;;;4.78;2.72;;;;;;;;;;5055487;28;20045;-78
2020/12/06 05:46:31;;;;;;;5.15;3.50;;;;;;;;;;5059977;28;20045;-77
2020/12/06 05:48:57;;;;;;;4.15;2.83;;;;;;;;;;5059826;28;20509;-77
2020/12/06 05:51:24;;;;;;;4.55;2.92;;;;;;;;;;5057241;28;20048;-77
2020/12/06 05:53:51;;;;;;;5.63;3.10;;;;;;;;;;5060942;28;20044;-76
2020/12/06 05:56:19;;;;;;;4.72;3.13;;;;;;;;;;5056511;28;20052;-77
2020/12/06 05:58:49;;;;;;;6.07;3.40;;;;;;;;;;5058249;28;20048;-77
2020/12/06 06:01:18;;;;;;;5.03;2.90;;;;;;;;;;5059727;28;20537;-77
2020/12/06 06:03:48;;;;;;;3.50;2.58;;;;;;;;;;5059509;28;20438;-76
2020/12/06 06:06:14;;;;;;;;;;;;;;;;;;5059410;28;20059;-76
2020/12/06 06:08:41;;;;;;;4.57;2.80;;;;;;;;;;5059285;28;19921;-76
2020/12/06 06:11:19;;;;;;;5.25;2.83;;;;;;;;;;5059862;28;20055;-77
2020/12/06 06:13:47;;;;;;;4.38;2.88;;;;;;;;;;5063124;28;20048;-76
2020/12/06 06:16:14;;;;;;;5.07;2.90;;;;;;;;;;5057649;28;20169;-76
2020/12/06 06:18:42;;;;;;;5.38;2.60;;;;;;;;;;5056239;28;20056;-76
2020/12/06 06:21:08;;;;;;;4.18;2.55;;;;;;;;;;5059020;28;20045;-76
2020/12/06 06:23:35;;;;;;;5.00;2.38;;;;;;;;;;5056174;28;20411;-75
2020/12/06 06:26:01;;;;;;;4.60;2.97;;;;;;;;;;5059020;28;20079;-75
2020/12/06 06:28:28;;;;;;;4.28;3.13;;;;;;;;;;5054845;28;20053;-75
2020/12/06 06:30:55;;;;;;;3.15;2.53;;;;;;;;;;5053408;28;20041;-74
2020/12/06 06:33:21;;;;;;;3.47;2.22;;;;;;;;;;5062342;28;20421;-76
2020/12/06 06:35:52;;;;;;;4.00;2.42;;;;;;;;;;5052460;28;20410;-75
2020/12/06 06:38:44;;;;;;;3.30;2.05;;;;;;;;;;5060174;28;20044;-76
2020/12/06 06:41:11;;;;;;;3.53;2.70;;;;;;;;;;5054160;28;20045;-74
2020/12/06 06:43:38;;;;;;;3.38;2.20;;;;;;;;;;5054291;28;20045;-75
2020/12/06 06:46:14;;;;;;;4.38;2.35;;;;;;;;;;5062460;28;20092;-75
2020/12/06 06:48:43;;;;;;;4.00;2.70;;;;;;;;;;5056804;28;20044;-76
2020/12/06 06:51:16;;;;;;;3.58;2.15;;;;;;;;;;5054266;28;20079;-75
2020/12/06 06:53:43;;;;;;;3.65;2.58;;;;;;;;;;5055915;28;20037;-75
2020/12/06 06:56:09;;;;;;;4.13;2.28;;;;;;;;;;5060174;28;20056;-76
2020/12/06 06:58:35;;;;;;;5.93;2.75;;;;;;;;;;5051673;28;20040;-75
2020/12/06 07:01:17;;;;;;;2.67;1.92;;;;;;;;;;5053976;28;20051;-77
2020/12/06 07:03:52;;;;;;;2.95;2.35;;;;;;;;;;5058820;28;20410;-76
2020/12/06 07:06:54;;;;;;;4.32;2.55;;;;;;;;;;5056414;28;20063;-78
2020/12/06 07:09:38;;;;;;;4.57;2.47;;;;;;;;;;4985673;28;20050;-77
2020/12/06 07:12:04;;;;;;;5.07;1.95;;;;;;;;;;5052218;28;20079;-78
2020/12/06 07:14:30;;;;;;;4.65;2.17;;;;;;;;;;5057436;28;20051;-76
2020/12/06 07:16:58;;;;;;;3.38;2.20;;;;;;;;;;5052289;28;20118;-76
2020/12/06 07:19:24;;;;;;;2.83;1.95;;;;;;;;;;5052234;28;20483;-78
2020/12/06 07:21:51;;;;;;;2.90;2.10;;;;;;;;;;5051216;28;20049;-77
2020/12/06 07:24:18;;;;;;;2.85;1.80;;;;;;;;;;5055593;28;20131;-76
2020/12/06 07:26:45;;;;;;;3.58;2.15;;;;;;;;;;5053858;28;20081;-76
2020/12/06 07:29:11;;;;;;;3.50;2.40;;;;;;;;;;5053478;28;20049;-77
2020/12/06 07:31:38;;;;;;;4.85;2.30;;;;;;;;;;5050816;28;20064;-83
2020/12/06 07:34:04;;;;;;;3.28;1.83;;;;;;;;;;5059901;28;20084;-77
2020/12/06 07:36:34;;;;;;;4.32;2.20;;;;;;;;;;5062035;28;20447;-75
2020/12/06 07:39:11;;;;;;;3.40;1.90;;;;;;;;;;5055193;28;20045;-75
2020/12/06 07:41:50;;;;;;;3.00;2.00;;;;;;;;;;5057822;28;20055;-78
2020/12/06 07:44:16;;;;;;;2.92;1.90;;;;;;;;;;5057479;28;20048;-77
2020/12/06 07:46:43;;;;;;;2.67;1.80;;;;;;;;;;5056317;28;20479;-78
2020/12/06 07:49:09;;;;;;;2.88;2.00;;;;;;;;;;5052532;28;20083;-78
2020/12/06 07:51:38;;;;;;;2.72;2.17;;;;;;;;;;5056497;28;20056;-76
2020/12/06 07:54:04;;;;;;;4.18;1.65;;;;;;;;;;5058853;28;20052;-76
2020/12/06 07:56:30;;;;;;;3.33;2.10;;;;;;;;;;5061825;28;20406;-75
2020/12/06 07:59:09;;;;;;;3.22;2.03;;;;;;;;;;5058599;28;20482;-76
2020/12/06 08:01:35;;;;;;;3.45;2.47;;;;;;;;;;5059260;28;20056;-77
2020/12/06 08:04:23;;;;;;;5.05;2.40;;;;;;;;;;5056814;28;20049;-75
2020/12/06 08:06:51;;;;;;;2.65;1.75;;;;;;;;;;5062222;28;20048;-76
2020/12/06 08:09:18;;;;;;;3.13;1.85;;;;;;;;;;5059201;28;20059;-77
2020/12/06 08:11:46;;;;;;;3.25;2.15;;;;;;;;;;5062742;28;20505;-75
2020/12/06 08:14:21;;;;;;;3.65;2.20;;;;;;;;;;5061172;28;20045;-76
2020/12/06 08:16:54;;;;;;;3.83;2.30;;;;;;;;;;5063912;28;20325;-75
2020/12/06 08:19:22;;;;;;;4.95;2.00;;;;;;;;;;5055668;28;20414;-75
2020/12/06 08:21:49;;;;;;;2.92;1.95;;;;;;;;;;5059183;28;20414;-78
2020/12/06 08:24:22;;;;;;;2.65;2.00;;;;;;;;;;5053139;28;20045;-78
2020/12/06 08:26:49;;;;;;;4.05;2.03;;;;;;;;;;5057840;28;20045;-75
2020/12/06 08:29:15;;;;;;;3.72;2.03;;;;;;;;;;5052782;28;20045;-74
2020/12/06 08:31:42;;;;;;;3.33;2.10;;;;;;;;;;5052183;28;20140;-76
2020/12/06 08:34:15;;;;;;;3.72;2.05;;;;;;;;;;5053141;28;20044;-75
2020/12/06 08:36:44;;;;;;;3.58;1.88;;;;;;;;;;5064924;28;20042;-73
2020/12/06 08:39:17;;;;;;;3.83;2.05;;;;;;;;;;5059963;28;20469;-72
2020/12/06 08:41:43;;;;;;;3.28;1.88;;;;;;;;;;5057327;28;20418;-73
2020/12/06 08:44:09;;;;;;;2.85;1.80;;;;;;;;;;5058270;28;20132;-74
2020/12/06 08:46:36;;;;;;;3.13;2.00;;;;;;;;;;5054809;28;20057;-74
2020/12/06 08:49:16;;;;;;;4.88;2.25;;;;;;;;;;5060057;28;20076;-73
2020/12/06 08:51:52;;;;;;;3.78;2.03;;;;;;;;;;5059137;28;20049;-74
2020/12/06 08:54:31;;;;;;;3.55;1.90;;;;;;;;;;5056951;28;20049;-74
2020/12/06 08:57:05;;;;;;;3.42;1.90;;;;;;;;;;5057625;28;20049;-75
2020/12/06 08:59:34;;;;;;;3.90;2.03;;;;;;;;;;5055387;28;20052;-75
2020/12/06 09:02:05;;;;;;;3.55;2.00;;;;;;;;;;5060734;28;20048;-75
2020/12/06 09:04:35;;;;;;;3.88;2.20;;;;;;;;;;5057463;28;20069;-77
2020/12/06 09:07:04;;;;;;;3.05;1.80;;;;;;;;;;5050674;28;20434;-76
2020/12/06 09:09:30;;;;;;;3.47;1.50;;;;;;;;;;5058124;28;20421;-75
2020/12/06 09:12:01;;;;;;;4.00;2.40;;;;;;;;;;5058221;28;20064;-75
2020/12/06 09:14:27;;;;;;;3.35;1.98;;;;;;;;;;5055628;28;20040;-75
2020/12/06 09:16:53;;;;;;;3.60;1.92;;;;;;;;;;5058114;28;20055;-74
2020/12/06 09:19:20;;;;;;;4.10;1.77;;;;;;;;;;5062188;28;20511;-75
2020/12/06 09:21:46;;;;;;;3.75;2.13;;;;;;;;;;5056409;28;20063;-74
2020/12/06 09:24:12;;;;;;;3.35;1.50;;;;;;;;;;5062375;28;20170;-76
2020/12/06 09:26:39;;;;;;;3.33;2.10;;;;;;;;;;5056102;28;20055;-75
2020/12/06 09:29:05;;;;;;;3.53;2.03;;;;;;;;;;5060293;28;20052;-74
2020/12/06 09:31:31;;;;;;;2.30;1.67;;;;;;;;;;5057323;28;20052;-73
2020/12/06 09:34:01;;;;;;;4.10;1.95;;;;;;;;;;5057965;28;20052;-74
2020/12/06 09:36:33;;;;;;;4.65;1.80;;;;;;;;;;5048578;28;20051;-73
2020/12/06 09:38:59;;;;;;;3.47;1.70;;;;;;;;;;5053143;28;20458;-77
2020/12/06 09:41:26;;;;;;;2.95;1.63;;;;;;;;;;5055685;28;20068;-73
2020/12/06 09:43:52;;;;;;;3.72;1.92;;;;;;;;;;5058170;28;20121;-74
2020/12/06 09:46:19;;;;;;;4.50;1.98;;;;;;;;;;5060245;28;20052;-73
2020/12/06 09:48:45;;;;;;;2.97;1.50;;;;;;;;;;5053784;28;20396;-73
2020/12/06 09:51:11;;;;;;;3.00;1.90;;;;;;;;;;5059418;28;20053;-74
2020/12/06 09:53:38;;;;;;;3.38;1.90;;;;;;;;;;5059946;28;20114;-74
2020/12/06 09:56:04;;;;;;;2.10;1.50;;;;;;;;;;5056795;28;20418;-73
2020/12/06 09:58:30;;;;;;;2.30;1.50;;;;;;;;;;5054826;28;20048;-74
2020/12/06 10:00:56;;;;;;;4.22;2.42;;;;;;;;;;5051485;28;20037;-73
2020/12/06 10:03:23;;;;;;;2.80;1.60;;;;;;;;;;5063141;28;20418;-73
2020/12/06 10:05:49;;;;;;;2.58;1.67;;;;;;;;;;5059714;28;20165;-74
2020/12/06 10:08:15;;;;;;;3.50;1.80;;;;;;;;;;5054903;28;20072;-74
2020/12/06 10:10:42;;;;;;;4.10;1.95;;;;;;;;;;5061918;28;20490;-75
2020/12/06 10:13:09;;;;;;;4.72;1.83;;;;;;;;;;5058288;28;20058;-73
2020/12/06 10:15:35;;;;;;;3.85;2.08;;;;;;;;;;5052958;28;20036;-78
2020/12/06 10:18:01;;;;;;;5.32;1.60;;;;;;;;;;5056745;28;20048;-74
2020/12/06 10:20:27;;;;;;;5.57;1.90;;;;;;;;;;5060211;28;20090;-74
2020/12/06 10:22:53;;;;;;;6.43;3.17;;;;;;;;;;5056461;28;20037;-74
2020/12/06 10:25:19;;;;;;;6.10;2.80;;;;;;;;;;5056873;28;20048;-73
2020/12/06 10:27:46;;;;;;;4.85;2.25;;;;;;;;;;5057711;28;20052;-74
2020/12/06 10:30:12;;;;;;;6.07;2.65;;;;;;;;;;5055820;28;20045;-73
2020/12/06 10:32:38;;;;;;;5.38;2.42;;;;;;;;;;5055053;28;20175;-73
2020/12/06 10:35:07;;;;;;;9.40;3.28;;;;;;;;;;5049812;28;21696;-78
2020/12/06 10:37:33;;;;;;;11.70;3.10;;;;;;;;;;5057480;28;20045;-73
2020/12/06 10:39:59;;;;;;;4.63;2.28;;;;;;;;;;5060140;28;20043;-72
2020/12/06 10:42:25;;;;;;;6.10;2.78;;;;;;;;;;5056552;28;20075;-72
2020/12/06 10:44:51;;;;;;;6.50;2.83;;;;;;;;;;5061713;28;20040;-72
2020/12/06 10:47:19;;;;;;;4.85;3.38;;;;;;;;;;5052647;28;20059;-72
2020/12/06 10:49:45;;;;;;;6.40;3.08;;;;;;;;;;5051881;28;20058;-72
2020/12/06 10:52:12;;;;;;;5.63;2.50;;;;;;;;;;5054180;28;20044;-71
2020/12/06 10:54:38;;;;;;;5.07;2.30;;;;;;;;;;5055278;28;20052;-73
2020/12/06 10:57:04;;;;;;;18.25;3.15;;;;;;;;;;5052635;28;20056;-73
2020/12/06 10:59:31;;;;;;;6.95;2.63;;;;;;;;;;5055011;28;20440;-72
2020/12/06 11:01:58;;;;;;;8.88;3.13;;;;;;;;;;5055001;28;20048;-72
2020/12/06 11:04:24;;;;;;;7.18;2.40;;;;;;;;;;5057497;28;20090;-72
2020/12/06 11:06:51;;;;;;;5.03;2.20;;;;;;;;;;5057038;28;20044;-72
2020/12/06 11:09:17;;;;;;;5.03;2.08;;;;;;;;;;5054447;28;20143;-71
2020/12/06 11:11:49;;;;;;;7.00;2.70;;;;;;;;;;5059841;28;20137;-72
2020/12/06 11:14:15;;;;;;;4.38;1.85;;;;;;;;;;5058604;28;20410;-73
2020/12/06 11:16:41;;;;;;;4.20;2.53;;;;;;;;;;5057263;28;20045;-71
2020/12/06 11:19:07;;;;;;;5.35;2.33;;;;;;;;;;5059485;28;20051;-71
2020/12/06 11:21:33;;;;;;;5.35;2.38;;;;;;;;;;5052230;28;20473;-72
2020/12/06 11:23:59;;;;;;;4.80;2.22;;;;;;;;;;5053034;28;20071;-73
2020/12/06 11:26:25;;;;;;;5.70;2.22;;;;;;;;;;5052643;28;20048;-73
2020/12/06 11:28:52;;;;;;;4.75;2.20;;;;;;;;;;5053545;28;22220;-72
2020/12/06 11:31:19;;;;;;;4.00;2.00;;;;;;;;;;5066198;23;20052;-68
2020/12/06 11:33:45;;;;;;;6.03;2.65;;;;;;;;;;5072920;28;20074;-68
2020/12/06 11:36:11;;;;;;;5.93;2.33;;;;;;;;;;5075456;28;20048;-69
2020/12/06 11:38:39;;;;;;;5.13;2.55;;;;;;;;;;5080849;28;20138;-68
2020/12/06 11:41:05;;;;;;;3.97;2.22;;;;;;;;;;5074359;28;20068;-69
2020/12/06 11:43:32;;;;;;;3.67;2.25;;;;;;;;;;5072601;28;20047;-68
2020/12/06 11:45:59;;;;;;;5.22;2.63;;;;;;;;;;5077922;28;20048;-70
2020/12/06 11:48:25;;;;;;;5.28;2.35;;;;;;;;;;5075832;28;20044;-69
2020/12/06 11:50:55;;;;;;;5.30;2.08;;;;;;;;;;5080113;28;20150;-68
2020/12/06 11:53:21;;;;;;;3.55;2.17;;;;;;;;;;5078723;28;20055;-69
2020/12/06 11:55:56;;;;;;;3.53;1.60;;;;;;;;;;5080390;28;20066;-70
2020/12/06 11:58:22;;;;;;;4.90;2.22;;;;;;;;;;5074037;28;20062;-70
2020/12/06 12:00:49;;;;;;;3.97;2.10;;;;;;;;;;5074101;28;20100;-71
2020/12/06 12:03:15;;;;;;;6.28;2.50;;;;;;;;;;5070171;28;20425;-70
2020/12/06 12:05:41;;;;;;;5.68;2.67;;;;;;;;;;5078513;28;20052;-69
2020/12/06 12:08:07;;;;;;;4.13;1.98;;;;;;;;;;5081098;28;20048;-69
2020/12/06 12:10:33;;;;;;;5.78;2.70;;;;;;;;;;5071315;28;20048;-70
2020/12/06 12:12:59;;;;;;;3.90;2.17;;;;;;;;;;5069266;28;20402;-69
2020/12/06 12:15:26;;;;;;;5.45;2.28;;;;;;;;;;5068975;28;20052;-69
2020/12/06 12:17:52;;;;;;;4.85;2.10;;;;;;;;;;5069469;28;20044;-70
2020/12/06 12:20:18;;;;;;;2.90;1.80;;;;;;;;;;5073226;28;20421;-69
2020/12/06 12:22:45;;;;;;;4.03;2.08;;;;;;;;;;5074435;28;20051;-70
2020/12/06 12:25:11;;;;;;;3.60;1.85;;;;;;;;;;5083372;28;20058;-69
2020/12/06 12:27:37;;;;;;;3.90;2.38;;;;;;;;;;5076234;28;20058;-70
2020/12/06 12:30:04;;;;;;;4.22;2.05;;;;;;;;;;5076564;28;20086;-69
2020/12/06 12:32:30;;;;;;;6.68;2.70;;;;;;;;;;5079471;28;20283;-69
2020/12/06 12:34:56;;;;;;;7.32;2.20;;;;;;;;;;5073746;28;20421;-70
2020/12/06 12:37:24;;;;;;;3.50;2.08;;;;;;;;;;5072996;28;20051;-69
2020/12/06 12:39:51;;;;;;;4.25;2.00;;;;;;;;;;5082783;28;20071;-70
2020/12/06 12:42:18;;;;;;;2.72;1.80;;;;;;;;;;5085023;28;20056;-69
2020/12/06 12:44:44;;;;;;;3.60;2.13;;;;;;;;;;5079804;28;20040;-70
2020/12/06 12:47:10;;;;;;;3.60;1.90;;;;;;;;;;5074738;28;20490;-70
2020/12/06 12:49:36;;;;;;;3.72;1.67;;;;;;;;;;5081688;28;20048;-69
2020/12/06 12:52:03;;;;;;;3.30;2.10;;;;;;;;;;5079409;28;20040;-69
2020/12/06 12:54:29;;;;;;;2.97;1.90;;;;;;;;;;5073317;28;20040;-70
2020/12/06 12:56:55;;;;;;;2.85;1.83;;;;;;;;;;5084245;28;20040;-70
2020/12/06 12:59:21;;;;;;;3.78;2.20;;;;;;;;;;5082175;28;20047;-69
2020/12/06 13:01:48;;;;;;;3.05;1.75;;;;;;;;;;5079841;28;20409;-70
2020/12/06 13:04:14;;;;;;;3.75;1.75;;;;;;;;;;5075689;28;20157;-70
2020/12/06 13:06:41;;;;;;;4.28;2.30;;;;;;;;;;5080769;28;20499;-71
2020/12/06 13:09:07;;;;;;;6.07;2.63;;;;;;;;;;5078012;28;20142;-72
2020/12/06 13:11:36;;;;;;;5.25;2.60;;;;;;;;;;5080015;28;20044;-72
2020/12/06 13:14:05;;;;;;;3.80;2.75;;;;;;;;;;5079168;28;20136;-72
2020/12/06 13:16:34;;;;;;;4.90;2.45;;;;;;;;;;5081228;28;20047;-73
2020/12/06 13:19:01;;;;;;;4.95;2.38;;;;;;;;;;5080470;28;20446;-73
2020/12/06 13:21:27;;;;;;;5.72;3.13;;;;;;;;;;5075077;28;20055;-73
2020/12/06 13:23:53;;;;;;;5.32;2.83;;;;;;;;;;5079941;28;20054;-73
2020/12/06 13:26:20;;;;;;;4.95;2.70;;;;;;;;;;5075865;28;20048;-72
2020/12/06 13:28:47;;;;;;;4.90;2.83;;;;;;;;;;5076555;28;20048;-73
2020/12/06 13:31:20;;;;;;;8.30;2.92;;;;;;;;;;5072459;28;20734;-73
2020/12/06 13:33:46;;;;;;;7.18;3.38;;;;;;;;;;5076574;28;20841;-73
2020/12/06 13:36:16;;;;;;;4.88;3.00;;;;;;;;;;5075310;28;20044;-73
2020/12/06 13:38:43;;;;;;;;;;;;;;;;;;5078026;28;20037;-74
2020/12/06 13:41:09;;;;;;;5.13;2.92;;;;;;;;;;5074007;28;19924;-73
2020/12/06 13:43:35;;;;;;;7.00;3.30;;;;;;;;;;5078407;28;20518;-73
2020/12/06 13:46:01;;;;;;;6.30;3.08;;;;;;;;;;5072763;28;20063;-74
2020/12/06 13:48:27;;;;;;;9.52;3.58;;;;;;;;;;5075026;28;20508;-73
2020/12/06 13:50:53;;;;;;;7.15;3.15;;;;;;;;;;5077096;28;20049;-73
2020/12/06 13:53:19;;;;;;;8.20;3.90;;;;;;;;;;5074297;28;20051;-73
2020/12/06 13:55:45;;;;;;;9.55;4.00;;;;;;;;;;5075667;28;20052;-73
2020/12/06 13:58:11;;;;;;;12.07;4.07;;;;;;;;;;5077334;28;20048;-73
2020/12/06 14:00:38;;;;;;;4.82;3.22;;;;;;;;;;5079451;28;20051;-72
2020/12/06 14:03:04;;;;;;;8.07;3.65;;;;;;;;;;5079382;28;20145;-73
2020/12/06 14:05:31;;;;;;;4.43;2.92;;;;;;;;;;5079368;28;20067;-72
2020/12/06 14:07:57;;;;;;;6.03;3.83;;;;;;;;;;5074162;28;20489;-71
2020/12/06 14:10:23;;;;;;;7.88;3.38;;;;;;;;;;5075405;28;20060;-72
2020/12/06 14:12:52;;;;;;;7.03;3.10;;;;;;;;;;5071397;28;20047;-71
2020/12/06 14:15:18;;;;;;;4.93;3.40;;;;;;;;;;5079828;28;20253;-71
2020/12/06 14:17:47;;;;;;;5.97;3.58;;;;;;;;;;5072338;28;20041;-71
2020/12/06 14:20:13;;;;;;;6.25;3.53;;;;;;;;;;5075780;28;20048;-72
2020/12/06 14:22:43;;;;;;;6.28;3.28;;;;;;;;;;5072946;28;20062;-72
2020/12/06 14:25:09;;;;;;;5.40;3.15;;;;;;;;;;5077920;28;20044;-71
2020/12/06 14:27:35;;;;;;;5.43;3.53;;;;;;;;;;5071355;28;20051;-72
2020/12/06 14:30:02;;;;;;;5.97;3.10;;;;;;;;;;5071305;28;20044;-71
2020/12/06 14:32:29;;;;;;;7.55;3.20;;;;;;;;;;5071419;28;20056;-72
2020/12/06 14:34:55;;;;;;;6.38;3.30;;;;;;;;;;5071283;28;20081;-72
2020/12/06 14:37:21;;;;;;;6.55;3.13;;;;;;;;;;5073725;28;20056;-72
2020/12/06 14:39:47;;;;;;;6.38;3.33;;;;;;;;;;5082486;28;20497;-72
2020/12/06 14:42:14;;;;;;;4.10;2.40;;;;;;;;;;5077940;28;20052;-73
2020/12/06 14:44:41;;;;;;;7.18;3.17;;;;;;;;;;5074161;28;20413;-74